createdAt,value
2023-05-12T00:04:30.714Z,100350.98
2023-05-12T00:09:37.750Z,100349.89
2023-05-12T00:14:44.764Z,100351.11
2023-05-12T00:19:51.598Z,100350.37
2023-05-12T00:24:58.800Z,100350.52
2023-05-12T00:30:07.078Z,100346.08
2023-05-12T00:35:14.277Z,100343.66
2023-05-12T00:40:21.852Z,100348.51
2023-05-12T00:45:30.137Z,100352.11
2023-05-12T00:50:37.706Z,100353.02
2023-05-12T00:55:44.874Z,100351.88
2023-05-12T01:00:52.908Z,100355.87
2023-05-12T01:06:07.373Z,100361.40
2023-05-12T01:11:14.434Z,100364.55
2023-05-12T01:16:25.065Z,100367.86
2023-05-12T01:21:32.176Z,100366.96
2023-05-12T01:26:39.907Z,100372.16
2023-05-12T01:31:47.664Z,100371.48
2023-05-12T01:36:54.983Z,100370.64
2023-05-12T01:42:02.009Z,100377.83
2023-05-12T01:47:11.266Z,100379.67
2023-05-12T01:52:20.909Z,100380.97
2023-05-12T01:57:28.281Z,100381.89
2023-05-12T02:02:40.215Z,100382.48
2023-05-12T02:07:48.987Z,100384.23
2023-05-12T02:12:57.024Z,100384.02
2023-05-12T02:18:05.541Z,100385.68
2023-05-12T02:23:12.584Z,100385.67
2023-05-12T02:28:20.459Z,100388.23
2023-05-12T02:33:28.853Z,100388.52
2023-05-12T02:38:36.492Z,100389.98
2023-05-12T02:43:44.208Z,100393.56
2023-05-12T02:48:51.504Z,100396.80
2023-05-12T02:53:59.044Z,100396.30
2023-05-12T02:59:05.985Z,100395.52
2023-05-12T03:04:13.068Z,100394.13
2023-05-12T03:09:20.396Z,100401.93
2023-05-12T03:14:28.738Z,100404.90
2023-05-12T03:19:36.106Z,100404.86
2023-05-12T03:24:43.415Z,100404.42
2023-05-12T03:29:50.282Z,100408.38
2023-05-12T03:34:57.289Z,100411.84
2023-05-12T03:40:05.005Z,100408.63
2023-05-12T03:45:13.441Z,100415.52
2023-05-12T03:50:21.458Z,100417.54
2023-05-12T03:55:28.797Z,100420.58
2023-05-12T04:00:35.738Z,100425.52
2023-05-12T04:05:43.110Z,100426.86
2023-05-12T04:10:50.038Z,100430.45
2023-05-12T04:15:59.363Z,100430.59
2023-05-12T04:21:06.627Z,100433.49
2023-05-12T04:26:13.498Z,100438.95
2023-05-12T04:31:22.958Z,100442.70
2023-05-12T04:36:33.715Z,100447.72
2023-05-12T04:41:41.507Z,100452.89
2023-05-12T04:46:49.793Z,100454.42
2023-05-12T04:51:56.821Z,100455.25
2023-05-12T04:57:04.469Z,100453.70
2023-05-12T05:02:11.880Z,100457.63
2023-05-12T05:07:19.284Z,100463.64
2023-05-12T05:12:26.794Z,100460.83
2023-05-12T05:17:34.946Z,100456.06
2023-05-12T05:22:42.460Z,100462.14
2023-05-12T05:27:50.241Z,100460.14
2023-05-12T05:32:57.562Z,100458.02
2023-05-12T05:38:04.963Z,100457.47
2023-05-12T05:43:12.484Z,100456.87
2023-05-12T05:48:19.540Z,100458.93
2023-05-12T05:53:27.826Z,100458.08
2023-05-12T05:58:35.553Z,100461.98
2023-05-12T06:03:44.114Z,100464.30
2023-05-12T06:08:51.393Z,100467.14
2023-05-12T06:13:58.560Z,100465.70
2023-05-12T06:19:06.917Z,100470.48
2023-05-12T06:24:14.013Z,100471.44
2023-05-12T06:29:22.363Z,100471.95
2023-05-12T06:34:29.807Z,100471.16
2023-05-12T06:39:38.304Z,100473.40
2023-05-12T06:44:45.776Z,100479.33
2023-05-12T06:49:52.905Z,100472.59
2023-05-12T06:54:59.801Z,100476.48
2023-05-12T07:00:08.811Z,100471.80
2023-05-12T07:05:15.950Z,100466.48
2023-05-12T07:10:22.936Z,100466.91
2023-05-12T07:15:32.480Z,100462.65
2023-05-12T07:20:39.667Z,100458.80
2023-05-12T07:25:46.618Z,100454.48
2023-05-12T07:30:53.674Z,100461.70
2023-05-12T07:36:00.793Z,100458.70
2023-05-12T07:41:07.875Z,100457.36
2023-05-12T07:46:14.857Z,100459.39
2023-05-12T07:51:21.895Z,100460.84
2023-05-12T07:56:28.933Z,100458.23
2023-05-12T08:01:36.014Z,100456.90
2023-05-12T08:06:43.042Z,100459.02
2023-05-12T08:11:51.822Z,100460.08
2023-05-12T08:16:59.324Z,100462.36
2023-05-12T08:22:06.814Z,100460.61
2023-05-12T08:27:13.697Z,100457.30
2023-05-12T08:32:20.821Z,100458.00
2023-05-12T08:37:28.128Z,100458.58
2023-05-12T08:42:43.852Z,100453.16
2023-05-12T08:47:52.852Z,100459.02
2023-05-12T08:53:00.545Z,100456.52
2023-05-12T08:58:09.737Z,100459.77
2023-05-12T09:03:17.590Z,100461.83
2023-05-12T09:08:25.197Z,100461.57
2023-05-12T09:13:40.464Z,100454.97
2023-05-12T09:18:51.901Z,100457.52
2023-05-12T09:24:01.117Z,100455.84
2023-05-12T09:29:10.814Z,100450.85
2023-05-12T09:34:19.577Z,100444.81
2023-05-12T09:39:26.777Z,100444.10
2023-05-12T09:44:34.706Z,100446.26
2023-05-12T09:49:47.015Z,100444.13
2023-05-12T09:54:54.257Z,100445.14
2023-05-12T10:00:01.765Z,100441.31
2023-05-12T10:05:17.166Z,100439.25
2023-05-12T10:10:27.309Z,100435.75
2023-05-12T10:15:35.617Z,100436.63
2023-05-12T10:20:44.971Z,100430.15
2023-05-12T10:25:53.171Z,100430.08
2023-05-12T10:31:01.044Z,100424.70
2023-05-12T10:36:19.809Z,100423.71
2023-05-12T10:41:34.689Z,100423.21
2023-05-12T10:46:43.106Z,100417.84
2023-05-12T10:51:51.163Z,100420.80
2023-05-12T10:57:02.197Z,100418.12
2023-05-12T11:02:22.077Z,100414.60
2023-05-12T11:07:32.551Z,100409.61
2023-05-12T11:12:40.169Z,100412.90
2023-05-12T11:17:47.216Z,100412.41
2023-05-12T11:22:55.353Z,100404.63
2023-05-12T11:28:03.865Z,100406.82
2023-05-12T11:33:10.974Z,100406.98
2023-05-12T11:38:24.523Z,100406.91
2023-05-12T11:43:34.659Z,100410.64
2023-05-12T11:48:41.814Z,100406.71
2023-05-12T11:53:50.394Z,100408.39
2023-05-12T11:58:59.208Z,100407.42
2023-05-12T12:04:06.339Z,100415.03
2023-05-12T12:09:13.712Z,100408.39
2023-05-12T12:14:20.695Z,100403.48
2023-05-12T12:19:28.502Z,100400.36
2023-05-12T12:24:35.896Z,100402.36
2023-05-12T12:29:43.233Z,100403.91
2023-05-12T12:34:50.247Z,100405.73
2023-05-12T12:39:57.175Z,100406.23
2023-05-12T12:45:04.613Z,100404.63
2023-05-12T12:50:12.405Z,100401.89
2023-05-12T12:55:19.964Z,100393.83
2023-05-12T13:00:28.506Z,100395.80
2023-05-12T13:05:36.302Z,100398.42
2023-05-12T13:10:43.555Z,100402.27
2023-05-12T13:15:50.607Z,100403.72
2023-05-12T13:20:57.639Z,100397.13
2023-05-12T13:26:04.691Z,100396.70
2023-05-12T13:31:12.013Z,100394.09
2023-05-12T13:36:18.991Z,100392.91
2023-05-12T13:41:26.373Z,100394.61
2023-05-12T13:46:33.584Z,100393.00
2023-05-12T13:51:40.677Z,100385.80
2023-05-12T13:56:47.652Z,100384.58
2023-05-12T14:01:57.860Z,100379.44
2023-05-12T14:07:07.207Z,100378.03
2023-05-12T14:12:15.538Z,100379.32
2023-05-12T14:17:22.567Z,100380.48
2023-05-12T14:22:29.638Z,100375.86
2023-05-12T14:27:36.649Z,100377.32
2023-05-12T14:32:43.693Z,100386.55
2023-05-12T14:37:50.850Z,100386.80
2023-05-12T14:42:57.899Z,100383.48
2023-05-12T14:48:06.278Z,100384.96
2023-05-12T14:53:13.226Z,100384.30
2023-05-12T14:58:21.949Z,100384.89
2023-05-12T15:03:29.741Z,100385.76
2023-05-12T15:08:36.743Z,100383.20
2023-05-12T15:13:44.194Z,100395.05
2023-05-12T15:18:51.260Z,100393.67
2023-05-12T15:23:58.598Z,100395.77
2023-05-12T15:29:05.533Z,100393.33
2023-05-12T15:34:12.497Z,100390.39
2023-05-12T15:39:21.108Z,100388.35
2023-05-12T15:44:28.813Z,100392.11
2023-05-12T15:49:35.662Z,100392.64
2023-05-12T15:54:42.679Z,100392.73
2023-05-12T15:59:50.264Z,100393.02
2023-05-12T16:04:58.611Z,100391.15
2023-05-12T16:10:06.554Z,100388.20
2023-05-12T16:15:15.851Z,100392.71
2023-05-12T16:20:23.079Z,100386.11
2023-05-12T16:25:29.999Z,100390.21
2023-05-12T16:30:37.091Z,100392.59
2023-05-12T16:35:44.102Z,100395.03
2023-05-12T16:40:51.052Z,100394.64
2023-05-12T16:46:04.620Z,100398.34
2023-05-12T16:51:12.778Z,100402.41
2023-05-12T16:56:19.751Z,100403.64
2023-05-12T17:01:26.666Z,100407.27
2023-05-12T17:06:33.655Z,100419.75
2023-05-12T17:11:40.747Z,100418.30
2023-05-12T17:16:47.819Z,100423.56
2023-05-12T17:21:54.965Z,100425.78
2023-05-12T17:27:02.437Z,100434.05
2023-05-12T17:32:10.050Z,100437.49
2023-05-12T17:37:16.919Z,100441.53
2023-05-12T17:42:24.282Z,100452.48
2023-05-12T17:47:31.337Z,100464.77
2023-05-12T17:52:40.754Z,100468.40
2023-05-12T17:57:49.466Z,100471.66
2023-05-12T18:02:56.439Z,100480.40
2023-05-12T18:08:03.600Z,100485.02
2023-05-12T18:13:10.699Z,100490.41
2023-05-12T18:18:17.800Z,100497.02
2023-05-12T18:23:25.001Z,100503.02
2023-05-12T18:28:32.486Z,100508.25
2023-05-12T18:33:39.807Z,100512.86
2023-05-12T18:38:47.555Z,100517.01
2023-05-12T18:43:54.519Z,100525.21
2023-05-12T18:49:01.600Z,100532.98
2023-05-12T18:54:08.894Z,100540.33
2023-05-12T18:59:15.836Z,100543.79
2023-05-12T19:04:23.579Z,100553.16
2023-05-12T19:09:30.596Z,100557.94
2023-05-12T19:14:38.221Z,100561.89
2023-05-12T19:19:46.736Z,100570.95
2023-05-12T19:24:54.059Z,100574.81
2023-05-12T19:30:02.478Z,100575.92
2023-05-12T19:35:11.872Z,100587.09
2023-05-12T19:40:18.839Z,100592.13
2023-05-12T19:45:25.921Z,100598.73
2023-05-12T19:50:33.268Z,100603.61
2023-05-12T19:55:40.149Z,100606.70
2023-05-12T20:00:47.102Z,100607.94
2023-05-12T20:05:54.166Z,100610.36
2023-05-12T20:11:01.302Z,100613.09
2023-05-12T20:16:08.427Z,100620.59
2023-05-12T20:21:15.531Z,100620.52
2023-05-12T20:26:23.523Z,100615.79
2023-05-12T20:31:30.964Z,100618.73
2023-05-12T20:36:38.154Z,100620.63
2023-05-12T20:41:46.598Z,100616.83
2023-05-12T20:46:53.995Z,100620.58
2023-05-12T20:52:01.077Z,100622.14
2023-05-12T20:57:10.336Z,100626.66
2023-05-12T21:02:19.078Z,100627.53
2023-05-12T21:07:26.605Z,100631.46
2023-05-12T21:12:34.272Z,100633.75
2023-05-12T21:17:41.602Z,100633.96
2023-05-12T21:22:51.838Z,100640.14
2023-05-12T21:27:58.878Z,100641.66
2023-05-12T21:33:06.749Z,100644.95
2023-05-12T21:38:13.919Z,100650.93
2023-05-12T21:43:20.858Z,100650.77
2023-05-12T21:48:27.801Z,100652.63
2023-05-12T21:53:35.086Z,100653.88
2023-05-12T21:58:42.756Z,100655.77
2023-05-12T22:03:50.000Z,100653.15
2023-05-12T22:08:57.190Z,100653.52
2023-05-12T22:14:04.365Z,100652.86
2023-05-12T22:19:11.709Z,100648.48
2023-05-12T22:24:19.114Z,100644.06
2023-05-12T22:29:26.515Z,100644.80
2023-05-12T22:34:36.819Z,100643.35
2023-05-12T22:39:48.456Z,100644.23
2023-05-12T22:44:57.494Z,100646.89
2023-05-12T22:50:04.476Z,100642.63
2023-05-12T22:55:12.805Z,100641.68
2023-05-12T23:00:20.880Z,100641.19
2023-05-12T23:05:28.264Z,100642.63
2023-05-12T23:10:35.178Z,100648.16
2023-05-12T23:15:42.063Z,100637.52
2023-05-12T23:20:49.043Z,100640.13
2023-05-12T23:25:55.953Z,100639.73
2023-05-12T23:31:03.356Z,100640.52
2023-05-12T23:36:11.425Z,100638.24
2023-05-12T23:41:18.526Z,100638.36
2023-05-12T23:46:25.616Z,100632.25
2023-05-12T23:51:33.068Z,100630.42
2023-05-12T23:56:39.864Z,100634.64
